sensor_id;sensor_type;location;lat;lon;timestamp;P1;durP1;ratioP1;P2;durP2;ratioP2
51146;SDS011;37207;53.060;18.726;2022-11-15T00:00:09;116.90;;;66.10;;
51146;SDS011;37207;53.060;18.726;2022-11-15T00:03:03;105.50;;;65.50;;
51146;SDS011;37207;53.060;18.726;2022-11-15T00:05:48;107.30;;;66.80;;
51146;SDS011;37207;53.060;18.726;2022-11-15T00:08:34;111.20;;;68.50;;
51146;SDS011;37207;53.060;18.726;2022-11-15T00:11:19;117.60;;;69.70;;
51146;SDS011;37207;53.060;18.726;2022-11-15T00:14:04;120.70;;;71.60;;
51146;SDS011;37207;53.060;18.726;2022-11-15T00:16:49;112.70;;;69.20;;
51146;SDS011;37207;53.060;18.726;2022-11-15T00:19:34;112.20;;;69.50;;
51146;SDS011;37207;53.060;18.726;2022-11-15T00:22:19;116.70;;;69.00;;
51146;SDS011;37207;53.060;18.726;2022-11-15T00:25:05;114.70;;;67.30;;
51146;SDS011;37207;53.060;18.726;2022-11-15T00:27:54;102.50;;;62.30;;
51146;SDS011;37207;53.060;18.726;2022-11-15T00:30:40;108.50;;;64.50;;
51146;SDS011;37207;53.060;18.726;2022-11-15T00:33:25;111.70;;;66.60;;
51146;SDS011;37207;53.060;18.726;2022-11-15T00:36:10;103.60;;;64.60;;
51146;SDS011;37207;53.060;18.726;2022-11-15T00:38:55;106.20;;;62.00;;
51146;SDS011;37207;53.060;18.726;2022-11-15T00:41:41;104.30;;;63.20;;
51146;SDS011;37207;53.060;18.726;2022-11-15T00:44:26;114.20;;;67.50;;
51146;SDS011;37207;53.060;18.726;2022-11-15T00:47:11;115.40;;;67.70;;
51146;SDS011;37207;53.060;18.726;2022-11-15T00:49:56;116.50;;;65.80;;
51146;SDS011;37207;53.060;18.726;2022-11-15T00:52:42;106.80;;;61.40;;
51146;SDS011;37207;53.060;18.726;2022-11-15T00:55:27;115.00;;;66.40;;
51146;SDS011;37207;53.060;18.726;2022-11-15T00:58:12;120.20;;;67.50;;
51146;SDS011;37207;53.060;18.726;2022-11-15T01:01:05;120.10;;;66.40;;
51146;SDS011;37207;53.060;18.726;2022-11-15T01:03:51;115.90;;;65.20;;
51146;SDS011;37207;53.060;18.726;2022-11-15T01:06:36;123.00;;;67.70;;
51146;SDS011;37207;53.060;18.726;2022-11-15T01:09:22;125.80;;;68.70;;
51146;SDS011;37207;53.060;18.726;2022-11-15T01:12:07;114.40;;;63.40;;
51146;SDS011;37207;53.060;18.726;2022-11-15T01:14:52;125.00;;;69.30;;
51146;SDS011;37207;53.060;18.726;2022-11-15T01:17:37;133.80;;;70.10;;
51146;SDS011;37207;53.060;18.726;2022-11-15T01:20:23;125.80;;;69.40;;
51146;SDS011;37207;53.060;18.726;2022-11-15T01:23:08;132.00;;;68.90;;
51146;SDS011;37207;53.060;18.726;2022-11-15T01:25:57;136.90;;;64.80;;
51146;SDS011;37207;53.060;18.726;2022-11-15T01:28:43;130.70;;;66.30;;
51146;SDS011;37207;53.060;18.726;2022-11-15T01:31:29;141.70;;;69.50;;
51146;SDS011;37207;53.060;18.726;2022-11-15T01:34:14;139.10;;;70.40;;
51146;SDS011;37207;53.060;18.726;2022-11-15T01:37:00;139.70;;;71.40;;
51146;SDS011;37207;53.060;18.726;2022-11-15T01:39:45;140.40;;;69.10;;
51146;SDS011;37207;53.060;18.726;2022-11-15T01:42:30;144.10;;;70.30;;
51146;SDS011;37207;53.060;18.726;2022-11-15T01:45:16;148.80;;;69.50;;
51146;SDS011;37207;53.060;18.726;2022-11-15T01:48:01;140.70;;;70.30;;
51146;SDS011;37207;53.060;18.726;2022-11-15T01:50:47;143.70;;;70.70;;
51146;SDS011;37207;53.060;18.726;2022-11-15T01:53:34;159.60;;;68.50;;
51146;SDS011;37207;53.060;18.726;2022-11-15T01:56:23;160.30;;;70.80;;
51146;SDS011;37207;53.060;18.726;2022-11-15T01:59:13;113.60;;;36.80;;
51146;SDS011;37207;53.060;18.726;2022-11-15T02:01:58;133.10;;;65.10;;
51146;SDS011;37207;53.060;18.726;2022-11-15T02:04:47;163.70;;;73.10;;
51146;SDS011;37207;53.060;18.726;2022-11-15T02:07:33;149.50;;;72.00;;
51146;SDS011;37207;53.060;18.726;2022-11-15T02:10:21;147.90;;;69.00;;
51146;SDS011;37207;53.060;18.726;2022-11-15T02:13:07;153.40;;;74.90;;
51146;SDS011;37207;53.060;18.726;2022-11-15T02:18:39;131.10;;;67.80;;
51146;SDS011;37207;53.060;18.726;2022-11-15T02:34:08;146.70;;;68.60;;
51146;SDS011;37207;53.060;18.726;2022-11-15T02:37:00;136.20;;;67.00;;
51146;SDS011;37207;53.060;18.726;2022-11-15T02:43:18;140.70;;;69.50;;
51146;SDS011;37207;53.060;18.726;2022-11-15T02:49:39;127.90;;;62.80;;
51146;SDS011;37207;53.060;18.726;2022-11-15T02:52:26;142.80;;;64.30;;
51146;SDS011;37207;53.060;18.726;2022-11-15T03:01:26;150.20;;;66.70;;
51146;SDS011;37207;53.060;18.726;2022-11-15T03:07:24;140.70;;;64.60;;
51146;SDS011;37207;53.060;18.726;2022-11-15T03:10:15;133.90;;;62.50;;
51146;SDS011;37207;53.060;18.726;2022-11-15T03:16:09;139.40;;;63.80;;
51146;SDS011;37207;53.060;18.726;2022-11-15T03:19:11;140.80;;;62.90;;
51146;SDS011;37207;53.060;18.726;2022-11-15T03:21:59;153.90;;;66.90;;
51146;SDS011;37207;53.060;18.726;2022-11-15T03:24:50;157.00;;;67.90;;
51146;SDS011;37207;53.060;18.726;2022-11-15T03:27:43;141.50;;;66.60;;
51146;SDS011;37207;53.060;18.726;2022-11-15T03:30:35;134.40;;;63.00;;
51146;SDS011;37207;53.060;18.726;2022-11-15T03:33:23;157.20;;;62.20;;
51146;SDS011;37207;53.060;18.726;2022-11-15T03:36:09;135.00;;;62.10;;
51146;SDS011;37207;53.060;18.726;2022-11-15T03:38:56;131.00;;;64.00;;
51146;SDS011;37207;53.060;18.726;2022-11-15T03:41:53;134.80;;;58.20;;
51146;SDS011;37207;53.060;18.726;2022-11-15T03:48:05;122.90;;;61.50;;
51146;SDS011;37207;53.060;18.726;2022-11-15T03:50:57;118.90;;;59.00;;
51146;SDS011;37207;53.060;18.726;2022-11-15T03:53:42;120.50;;;56.60;;
51146;SDS011;37207;53.060;18.726;2022-11-15T03:56:27;128.40;;;56.70;;
51146;SDS011;37207;53.060;18.726;2022-11-15T03:59:13;126.20;;;59.40;;
51146;SDS011;37207;53.060;18.726;2022-11-15T04:01:58;122.30;;;56.80;;
51146;SDS011;37207;53.060;18.726;2022-11-15T04:04:43;108.90;;;52.50;;
51146;SDS011;37207;53.060;18.726;2022-11-15T04:07:28;133.60;;;57.60;;
51146;SDS011;37207;53.060;18.726;2022-11-15T04:10:14;130.20;;;58.40;;
51146;SDS011;37207;53.060;18.726;2022-11-15T04:12:59;123.80;;;60.80;;
51146;SDS011;37207;53.060;18.726;2022-11-15T04:15:44;138.70;;;60.50;;
51146;SDS011;37207;53.060;18.726;2022-11-15T04:18:29;135.40;;;59.00;;
51146;SDS011;37207;53.060;18.726;2022-11-15T04:21:14;152.60;;;61.50;;
51146;SDS011;37207;53.060;18.726;2022-11-15T04:24:18;146.40;;;61.80;;
51146;SDS011;37207;53.060;18.726;2022-11-15T04:27:03;137.40;;;60.90;;
51146;SDS011;37207;53.060;18.726;2022-11-15T04:29:48;149.80;;;61.40;;
51146;SDS011;37207;53.060;18.726;2022-11-15T04:32:34;134.10;;;61.00;;
51146;SDS011;37207;53.060;18.726;2022-11-15T04:35:19;153.80;;;63.90;;
51146;SDS011;37207;53.060;18.726;2022-11-15T04:38:05;172.40;;;63.70;;
51146;SDS011;37207;53.060;18.726;2022-11-15T04:40:52;151.60;;;64.20;;
51146;SDS011;37207;53.060;18.726;2022-11-15T04:43:37;155.80;;;63.70;;
51146;SDS011;37207;53.060;18.726;2022-11-15T04:46:22;157.00;;;65.20;;
51146;SDS011;37207;53.060;18.726;2022-11-15T04:49:08;144.90;;;65.00;;
51146;SDS011;37207;53.060;18.726;2022-11-15T04:51:53;116.70;;;57.30;;
51146;SDS011;37207;53.060;18.726;2022-11-15T04:54:38;150.00;;;61.60;;
51146;SDS011;37207;53.060;18.726;2022-11-15T04:57:24;142.00;;;60.40;;
51146;SDS011;37207;53.060;18.726;2022-11-15T05:00:11;127.10;;;58.70;;
51146;SDS011;37207;53.060;18.726;2022-11-15T05:02:58;143.00;;;62.40;;
51146;SDS011;37207;53.060;18.726;2022-11-15T05:06:02;111.10;;;48.10;;
51146;SDS011;37207;53.060;18.726;2022-11-15T05:08:47;148.90;;;64.60;;
51146;SDS011;37207;53.060;18.726;2022-11-15T05:11:32;136.10;;;62.20;;
51146;SDS011;37207;53.060;18.726;2022-11-15T05:14:17;142.00;;;60.80;;
51146;SDS011;37207;53.060;18.726;2022-11-15T05:17:02;139.20;;;59.70;;
51146;SDS011;37207;53.060;18.726;2022-11-15T05:19:48;152.00;;;59.00;;
51146;SDS011;37207;53.060;18.726;2022-11-15T05:22:33;152.40;;;61.50;;
51146;SDS011;37207;53.060;18.726;2022-11-15T05:25:18;150.20;;;59.00;;
51146;SDS011;37207;53.060;18.726;2022-11-15T05:28:03;121.90;;;56.70;;
51146;SDS011;37207;53.060;18.726;2022-11-15T05:30:48;151.00;;;59.40;;
51146;SDS011;37207;53.060;18.726;2022-11-15T05:33:34;129.30;;;58.50;;
51146;SDS011;37207;53.060;18.726;2022-11-15T05:36:31;118.60;;;58.80;;
51146;SDS011;37207;53.060;18.726;2022-11-15T05:39:20;114.60;;;53.20;;
51146;SDS011;37207;53.060;18.726;2022-11-15T05:42:12;113.30;;;51.20;;
51146;SDS011;37207;53.060;18.726;2022-11-15T05:44:59;115.20;;;53.50;;
51146;SDS011;37207;53.060;18.726;2022-11-15T05:47:46;108.40;;;53.20;;
51146;SDS011;37207;53.060;18.726;2022-11-15T05:50:33;125.50;;;55.10;;
51146;SDS011;37207;53.060;18.726;2022-11-15T05:53:21;128.50;;;55.00;;
51146;SDS011;37207;53.060;18.726;2022-11-15T05:56:09;138.00;;;54.20;;
51146;SDS011;37207;53.060;18.726;2022-11-15T05:58:55;130.10;;;54.50;;
51146;SDS011;37207;53.060;18.726;2022-11-15T06:01:42;124.30;;;54.50;;
51146;SDS011;37207;53.060;18.726;2022-11-15T06:04:27;137.40;;;54.50;;
51146;SDS011;37207;53.060;18.726;2022-11-15T06:07:13;157.30;;;58.90;;
51146;SDS011;37207;53.060;18.726;2022-11-15T06:09:58;140.70;;;58.30;;
51146;SDS011;37207;53.060;18.726;2022-11-15T06:12:43;134.20;;;57.30;;
51146;SDS011;37207;53.060;18.726;2022-11-15T06:15:29;120.70;;;54.70;;
51146;SDS011;37207;53.060;18.726;2022-11-15T06:18:14;144.80;;;53.60;;
51146;SDS011;37207;53.060;18.726;2022-11-15T06:21:00;141.70;;;57.60;;
51146;SDS011;37207;53.060;18.726;2022-11-15T06:23:45;139.00;;;56.50;;
51146;SDS011;37207;53.060;18.726;2022-11-15T06:26:30;130.90;;;55.60;;
51146;SDS011;37207;53.060;18.726;2022-11-15T06:29:15;171.00;;;72.10;;
51146;SDS011;37207;53.060;18.726;2022-11-15T06:32:01;147.70;;;64.90;;
51146;SDS011;37207;53.060;18.726;2022-11-15T06:34:46;136.20;;;60.50;;
51146;SDS011;37207;53.060;18.726;2022-11-15T06:37:33;121.70;;;60.00;;
51146;SDS011;37207;53.060;18.726;2022-11-15T06:40:18;132.90;;;64.90;;
51146;SDS011;37207;53.060;18.726;2022-11-15T06:43:04;145.10;;;65.50;;
51146;SDS011;37207;53.060;18.726;2022-11-15T06:45:49;127.40;;;55.20;;
51146;SDS011;37207;53.060;18.726;2022-11-15T06:48:34;142.50;;;57.80;;
51146;SDS011;37207;53.060;18.726;2022-11-15T06:51:20;110.60;;;54.20;;
51146;SDS011;37207;53.060;18.726;2022-11-15T06:54:06;106.50;;;52.00;;
51146;SDS011;37207;53.060;18.726;2022-11-15T06:56:51;134.20;;;52.20;;
51146;SDS011;37207;53.060;18.726;2022-11-15T06:59:36;122.70;;;51.80;;
51146;SDS011;37207;53.060;18.726;2022-11-15T07:02:21;130.70;;;53.00;;
51146;SDS011;37207;53.060;18.726;2022-11-15T07:05:07;122.60;;;53.20;;
51146;SDS011;37207;53.060;18.726;2022-11-15T07:07:52;110.30;;;51.50;;
51146;SDS011;37207;53.060;18.726;2022-11-15T07:10:38;113.10;;;52.60;;
51146;SDS011;37207;53.060;18.726;2022-11-15T07:13:24;143.20;;;52.50;;
51146;SDS011;37207;53.060;18.726;2022-11-15T07:16:10;136.40;;;56.20;;
51146;SDS011;37207;53.060;18.726;2022-11-15T07:18:55;154.00;;;54.90;;
51146;SDS011;37207;53.060;18.726;2022-11-15T07:21:41;152.40;;;54.40;;
51146;SDS011;37207;53.060;18.726;2022-11-15T07:24:26;133.50;;;54.50;;
51146;SDS011;37207;53.060;18.726;2022-11-15T07:27:11;112.20;;;50.80;;
51146;SDS011;37207;53.060;18.726;2022-11-15T07:29:56;122.40;;;50.50;;
51146;SDS011;37207;53.060;18.726;2022-11-15T07:32:41;131.00;;;52.50;;
51146;SDS011;37207;53.060;18.726;2022-11-15T07:35:27;122.00;;;51.00;;
51146;SDS011;37207;53.060;18.726;2022-11-15T07:38:13;120.60;;;50.30;;
51146;SDS011;37207;53.060;18.726;2022-11-15T07:41:00;132.40;;;51.10;;
51146;SDS011;37207;53.060;18.726;2022-11-15T07:43:47;179.50;;;52.00;;
51146;SDS011;37207;53.060;18.726;2022-11-15T07:46:35;139.00;;;51.80;;
51146;SDS011;37207;53.060;18.726;2022-11-15T07:49:20;128.10;;;52.60;;
51146;SDS011;37207;53.060;18.726;2022-11-15T07:52:05;116.00;;;54.60;;
51146;SDS011;37207;53.060;18.726;2022-11-15T07:54:50;106.30;;;51.60;;
51146;SDS011;37207;53.060;18.726;2022-11-15T07:57:35;108.80;;;55.80;;
51146;SDS011;37207;53.060;18.726;2022-11-15T08:00:20;122.60;;;52.70;;
51146;SDS011;37207;53.060;18.726;2022-11-15T08:03:08;116.10;;;51.70;;
51146;SDS011;37207;53.060;18.726;2022-11-15T08:05:57;115.80;;;51.10;;
51146;SDS011;37207;53.060;18.726;2022-11-15T08:08:43;126.30;;;53.10;;
51146;SDS011;37207;53.060;18.726;2022-11-15T08:11:28;123.70;;;54.60;;
51146;SDS011;37207;53.060;18.726;2022-11-15T08:14:13;115.60;;;55.90;;
51146;SDS011;37207;53.060;18.726;2022-11-15T08:16:59;108.90;;;49.70;;
51146;SDS011;37207;53.060;18.726;2022-11-15T08:19:44;111.90;;;49.90;;
51146;SDS011;37207;53.060;18.726;2022-11-15T08:22:29;118.60;;;52.90;;
51146;SDS011;37207;53.060;18.726;2022-11-15T08:25:14;105.40;;;49.90;;
51146;SDS011;37207;53.060;18.726;2022-11-15T08:28:02;97.50;;;47.60;;
51146;SDS011;37207;53.060;18.726;2022-11-15T08:30:49;93.80;;;47.40;;
51146;SDS011;37207;53.060;18.726;2022-11-15T08:33:35;118.30;;;52.30;;
51146;SDS011;37207;53.060;18.726;2022-11-15T08:36:20;123.10;;;54.10;;
51146;SDS011;37207;53.060;18.726;2022-11-15T08:39:05;116.20;;;51.00;;
51146;SDS011;37207;53.060;18.726;2022-11-15T08:41:50;130.30;;;53.10;;
51146;SDS011;37207;53.060;18.726;2022-11-15T08:44:35;140.90;;;49.80;;
51146;SDS011;37207;53.060;18.726;2022-11-15T08:47:21;123.80;;;48.30;;
51146;SDS011;37207;53.060;18.726;2022-11-15T08:50:06;118.20;;;47.40;;
51146;SDS011;37207;53.060;18.726;2022-11-15T08:52:51;99.20;;;46.00;;
51146;SDS011;37207;53.060;18.726;2022-11-15T08:55:37;107.40;;;45.90;;
51146;SDS011;37207;53.060;18.726;2022-11-15T08:58:23;87.80;;;45.40;;
51146;SDS011;37207;53.060;18.726;2022-11-15T09:01:18;94.90;;;47.00;;
51146;SDS011;37207;53.060;18.726;2022-11-15T09:04:05;104.60;;;49.20;;
51146;SDS011;37207;53.060;18.726;2022-11-15T09:06:50;100.50;;;44.60;;
51146;SDS011;37207;53.060;18.726;2022-11-15T09:09:35;93.30;;;47.00;;
51146;SDS011;37207;53.060;18.726;2022-11-15T09:12:21;91.00;;;46.60;;
51146;SDS011;37207;53.060;18.726;2022-11-15T09:15:06;81.20;;;43.50;;
51146;SDS011;37207;53.060;18.726;2022-11-15T09:17:51;80.00;;;43.30;;
51146;SDS011;37207;53.060;18.726;2022-11-15T09:20:37;101.40;;;43.10;;
51146;SDS011;37207;53.060;18.726;2022-11-15T09:23:22;105.10;;;44.90;;
51146;SDS011;37207;53.060;18.726;2022-11-15T09:26:07;97.90;;;45.50;;
51146;SDS011;37207;53.060;18.726;2022-11-15T09:28:53;89.60;;;46.10;;
51146;SDS011;37207;53.060;18.726;2022-11-15T09:31:38;107.40;;;46.70;;
51146;SDS011;37207;53.060;18.726;2022-11-15T09:34:23;112.40;;;42.90;;
51146;SDS011;37207;53.060;18.726;2022-11-15T09:37:08;73.00;;;42.20;;
51146;SDS011;37207;53.060;18.726;2022-11-15T09:39:53;90.00;;;44.30;;
51146;SDS011;37207;53.060;18.726;2022-11-15T09:42:45;93.40;;;44.90;;
51146;SDS011;37207;53.060;18.726;2022-11-15T09:45:45;78.70;;;44.10;;
51146;SDS011;37207;53.060;18.726;2022-11-15T09:48:58;73.60;;;41.50;;
51146;SDS011;37207;53.060;18.726;2022-11-15T09:51:38;72.20;;;41.10;;
51146;SDS011;37207;53.060;18.726;2022-11-15T09:57:09;94.40;;;43.50;;
51146;SDS011;37207;53.060;18.726;2022-11-15T09:59:42;107.70;;;44.10;;
51146;SDS011;37207;53.060;18.726;2022-11-15T10:02:19;87.10;;;44.50;;
51146;SDS011;37207;53.060;18.726;2022-11-15T10:04:59;124.00;;;42.50;;
51146;SDS011;37207;53.060;18.726;2022-11-15T10:07:33;121.80;;;43.20;;
51146;SDS011;37207;53.060;18.726;2022-11-15T10:10:20;88.30;;;43.60;;
51146;SDS011;37207;53.060;18.726;2022-11-15T10:13:06;93.40;;;44.90;;
51146;SDS011;37207;53.060;18.726;2022-11-15T10:15:41;97.00;;;42.20;;
51146;SDS011;37207;53.060;18.726;2022-11-15T10:23:17;86.50;;;45.90;;
51146;SDS011;37207;53.060;18.726;2022-11-15T10:25:47;96.50;;;46.60;;
51146;SDS011;37207;53.060;18.726;2022-11-15T10:28:17;107.90;;;50.10;;
51146;SDS011;37207;53.060;18.726;2022-11-15T10:30:50;99.10;;;51.10;;
51146;SDS011;37207;53.060;18.726;2022-11-15T10:33:37;137.60;;;71.20;;
51146;SDS011;37207;53.060;18.726;2022-11-15T10:41:16;134.20;;;54.10;;
51146;SDS011;37207;53.060;18.726;2022-11-15T10:43:45;101.10;;;53.60;;
51146;SDS011;37207;53.060;18.726;2022-11-15T10:46:26;107.20;;;56.50;;
51146;SDS011;37207;53.060;18.726;2022-11-15T10:48:53;103.90;;;52.10;;
51146;SDS011;37207;53.060;18.726;2022-11-15T10:51:25;104.10;;;52.70;;
51146;SDS011;37207;53.060;18.726;2022-11-15T10:53:57;113.20;;;54.30;;
51146;SDS011;37207;53.060;18.726;2022-11-15T10:56:27;109.10;;;52.40;;
51146;SDS011;37207;53.060;18.726;2022-11-15T10:58:56;101.10;;;51.00;;
51146;SDS011;37207;53.060;18.726;2022-11-15T11:01:25;117.20;;;50.10;;
51146;SDS011;37207;53.060;18.726;2022-11-15T11:06:29;114.50;;;55.50;;
51146;SDS011;37207;53.060;18.726;2022-11-15T11:08:57;116.20;;;51.50;;
51146;SDS011;37207;53.060;18.726;2022-11-15T11:11:47;107.90;;;53.70;;
51146;SDS011;37207;53.060;18.726;2022-11-15T11:14:21;112.00;;;58.00;;
51146;SDS011;37207;53.060;18.726;2022-11-15T11:16:51;106.90;;;50.20;;
51146;SDS011;37207;53.060;18.726;2022-11-15T11:25:25;118.90;;;55.90;;
51146;SDS011;37207;53.060;18.726;2022-11-15T11:35:50;151.80;;;65.50;;
51146;SDS011;37207;53.060;18.726;2022-11-15T11:44:17;159.50;;;51.50;;
51146;SDS011;37207;53.060;18.726;2022-11-15T11:47:01;163.30;;;47.20;;
51146;SDS011;37207;53.060;18.726;2022-11-15T11:49:48;134.00;;;47.80;;
51146;SDS011;37207;53.060;18.726;2022-11-15T11:52:26;145.70;;;45.60;;
51146;SDS011;37207;53.060;18.726;2022-11-15T11:57:41;94.90;;;46.70;;
51146;SDS011;37207;53.060;18.726;2022-11-15T12:02:47;99.40;;;51.70;;
51146;SDS011;37207;53.060;18.726;2022-11-15T12:05:46;107.30;;;50.30;;
51146;SDS011;37207;53.060;18.726;2022-11-15T12:11:49;117.70;;;49.40;;
51146;SDS011;37207;53.060;18.726;2022-11-15T12:14:29;115.70;;;54.40;;
51146;SDS011;37207;53.060;18.726;2022-11-15T12:19:29;134.80;;;68.90;;
51146;SDS011;37207;53.060;18.726;2022-11-15T12:22:13;106.50;;;51.60;;
51146;SDS011;37207;53.060;18.726;2022-11-15T12:27:38;107.30;;;51.30;;
51146;SDS011;37207;53.060;18.726;2022-11-15T12:30:11;111.30;;;49.60;;
51146;SDS011;37207;53.060;18.726;2022-11-15T12:33:28;125.70;;;49.40;;
51146;SDS011;37207;53.060;18.726;2022-11-15T12:35:58;110.70;;;49.90;;
51146;SDS011;37207;53.060;18.726;2022-11-15T12:43:57;126.10;;;57.80;;
51146;SDS011;37207;53.060;18.726;2022-11-15T13:02:43;149.10;;;49.40;;
51146;SDS011;37207;53.060;18.726;2022-11-15T13:35:54;165.80;;;75.70;;
51146;SDS011;37207;53.060;18.726;2022-11-15T13:38:27;153.80;;;64.90;;
51146;SDS011;37207;53.060;18.726;2022-11-15T13:40:56;149.20;;;54.50;;
51146;SDS011;37207;53.060;18.726;2022-11-15T13:48:31;99.00;;;49.60;;
51146;SDS011;37207;53.060;18.726;2022-11-15T13:51:01;102.40;;;51.30;;
51146;SDS011;37207;53.060;18.726;2022-11-15T13:53:32;133.80;;;53.40;;
51146;SDS011;37207;53.060;18.726;2022-11-15T13:56:00;118.90;;;52.50;;
51146;SDS011;37207;53.060;18.726;2022-11-15T13:58:29;129.90;;;54.50;;
51146;SDS011;37207;53.060;18.726;2022-11-15T14:01:00;107.70;;;52.60;;
51146;SDS011;37207;53.060;18.726;2022-11-15T14:03:30;140.00;;;55.20;;
51146;SDS011;37207;53.060;18.726;2022-11-15T14:08:42;136.40;;;62.30;;
51146;SDS011;37207;53.060;18.726;2022-11-15T14:11:24;100.90;;;53.10;;
51146;SDS011;37207;53.060;18.726;2022-11-15T14:16:39;105.30;;;53.50;;
51146;SDS011;37207;53.060;18.726;2022-11-15T14:24:34;117.70;;;54.90;;
51146;SDS011;37207;53.060;18.726;2022-11-15T14:29:48;138.50;;;53.10;;
51146;SDS011;37207;53.060;18.726;2022-11-15T14:33:11;108.00;;;53.80;;
51146;SDS011;37207;53.060;18.726;2022-11-15T14:35:16;136.40;;;51.90;;
51146;SDS011;37207;53.060;18.726;2022-11-15T14:37:46;202.10;;;85.60;;
51146;SDS011;37207;53.060;18.726;2022-11-15T14:40:14;347.90;;;150.50;;
51146;SDS011;37207;53.060;18.726;2022-11-15T14:42:44;261.40;;;111.50;;
51146;SDS011;37207;53.060;18.726;2022-11-15T14:45:19;161.30;;;67.10;;
51146;SDS011;37207;53.060;18.726;2022-11-15T14:47:48;117.60;;;55.70;;
51146;SDS011;37207;53.060;18.726;2022-11-15T14:50:16;123.80;;;61.00;;
51146;SDS011;37207;53.060;18.726;2022-11-15T14:52:44;117.20;;;63.70;;
51146;SDS011;37207;53.060;18.726;2022-11-15T14:55:20;115.10;;;60.30;;
51146;SDS011;37207;53.060;18.726;2022-11-15T14:57:49;99.80;;;54.60;;
51146;SDS011;37207;53.060;18.726;2022-11-15T15:00:16;112.60;;;55.90;;
51146;SDS011;37207;53.060;18.726;2022-11-15T15:02:44;110.80;;;57.10;;
51146;SDS011;37207;53.060;18.726;2022-11-15T15:07:43;111.90;;;55.70;;
51146;SDS011;37207;53.060;18.726;2022-11-15T15:10:11;110.00;;;55.10;;
51146;SDS011;37207;53.060;18.726;2022-11-15T15:12:38;113.50;;;56.20;;
51146;SDS011;37207;53.060;18.726;2022-11-15T15:15:05;116.10;;;57.70;;
51146;SDS011;37207;53.060;18.726;2022-11-15T15:17:38;117.40;;;65.90;;
51146;SDS011;37207;53.060;18.726;2022-11-15T15:20:05;150.30;;;86.20;;
51146;SDS011;37207;53.060;18.726;2022-11-15T15:22:32;126.00;;;62.80;;
51146;SDS011;37207;53.060;18.726;2022-11-15T15:24:59;141.30;;;73.40;;
51146;SDS011;37207;53.060;18.726;2022-11-15T15:27:25;136.60;;;65.20;;
51146;SDS011;37207;53.060;18.726;2022-11-15T15:29:52;128.20;;;64.00;;
51146;SDS011;37207;53.060;18.726;2022-11-15T15:32:19;129.30;;;63.10;;
51146;SDS011;37207;53.060;18.726;2022-11-15T15:34:45;115.00;;;57.10;;
51146;SDS011;37207;53.060;18.726;2022-11-15T15:37:22;118.40;;;63.40;;
51146;SDS011;37207;53.060;18.726;2022-11-15T15:39:51;127.50;;;62.10;;
51146;SDS011;37207;53.060;18.726;2022-11-15T15:42:19;112.70;;;57.80;;
51146;SDS011;37207;53.060;18.726;2022-11-15T15:44:47;103.40;;;53.70;;
51146;SDS011;37207;53.060;18.726;2022-11-15T15:47:16;109.30;;;58.10;;
51146;SDS011;37207;53.060;18.726;2022-11-15T15:49:45;111.10;;;59.40;;
51146;SDS011;37207;53.060;18.726;2022-11-15T15:52:12;113.50;;;58.70;;
51146;SDS011;37207;53.060;18.726;2022-11-15T15:54:39;111.20;;;57.20;;
51146;SDS011;37207;53.060;18.726;2022-11-15T15:57:06;108.90;;;56.00;;
51146;SDS011;37207;53.060;18.726;2022-11-15T15:59:34;97.30;;;52.50;;
51146;SDS011;37207;53.060;18.726;2022-11-15T16:02:00;111.50;;;56.80;;
51146;SDS011;37207;53.060;18.726;2022-11-15T16:04:27;100.70;;;54.60;;
51146;SDS011;37207;53.060;18.726;2022-11-15T16:06:58;107.70;;;58.30;;
51146;SDS011;37207;53.060;18.726;2022-11-15T16:09:26;102.00;;;56.60;;
51146;SDS011;37207;53.060;18.726;2022-11-15T16:12:12;107.10;;;55.90;;
51146;SDS011;37207;53.060;18.726;2022-11-15T16:14:38;114.70;;;58.60;;
51146;SDS011;37207;53.060;18.726;2022-11-15T16:17:05;104.40;;;54.10;;
51146;SDS011;37207;53.060;18.726;2022-11-15T16:19:32;94.30;;;51.30;;
51146;SDS011;37207;53.060;18.726;2022-11-15T16:21:58;96.90;;;50.70;;
51146;SDS011;37207;53.060;18.726;2022-11-15T16:24:25;98.10;;;50.70;;
51146;SDS011;37207;53.060;18.726;2022-11-15T16:26:52;102.70;;;51.50;;
51146;SDS011;37207;53.060;18.726;2022-11-15T16:29:18;99.70;;;53.40;;
51146;SDS011;37207;53.060;18.726;2022-11-15T16:31:45;105.50;;;57.50;;
51146;SDS011;37207;53.060;18.726;2022-11-15T16:34:12;102.40;;;56.80;;
51146;SDS011;37207;53.060;18.726;2022-11-15T16:36:38;107.50;;;54.70;;
51146;SDS011;37207;53.060;18.726;2022-11-15T16:39:05;105.20;;;55.00;;
51146;SDS011;37207;53.060;18.726;2022-11-15T16:41:32;101.00;;;53.50;;
51146;SDS011;37207;53.060;18.726;2022-11-15T16:43:59;102.10;;;51.70;;
51146;SDS011;37207;53.060;18.726;2022-11-15T16:46:26;97.70;;;51.20;;
51146;SDS011;37207;53.060;18.726;2022-11-15T16:48:55;110.40;;;52.50;;
51146;SDS011;37207;53.060;18.726;2022-11-15T16:51:22;99.70;;;51.90;;
51146;SDS011;37207;53.060;18.726;2022-11-15T16:53:49;105.60;;;52.80;;
51146;SDS011;37207;53.060;18.726;2022-11-15T16:56:23;120.40;;;55.80;;
51146;SDS011;37207;53.060;18.726;2022-11-15T16:58:52;112.10;;;57.00;;
51146;SDS011;37207;53.060;18.726;2022-11-15T17:01:24;121.10;;;58.40;;
51146;SDS011;37207;53.060;18.726;2022-11-15T17:03:53;115.60;;;56.70;;
51146;SDS011;37207;53.060;18.726;2022-11-15T17:06:20;118.60;;;57.10;;
51146;SDS011;37207;53.060;18.726;2022-11-15T17:08:48;116.20;;;57.40;;
51146;SDS011;37207;53.060;18.726;2022-11-15T17:11:16;110.40;;;55.40;;
51146;SDS011;37207;53.060;18.726;2022-11-15T17:13:44;120.90;;;58.70;;
51146;SDS011;37207;53.060;18.726;2022-11-15T17:16:13;131.60;;;61.50;;
51146;SDS011;37207;53.060;18.726;2022-11-15T17:18:41;149.10;;;62.30;;
51146;SDS011;37207;53.060;18.726;2022-11-15T17:21:12;88.60;;;48.70;;
51146;SDS011;37207;53.060;18.726;2022-11-15T17:23:40;89.90;;;47.80;;
51146;SDS011;37207;53.060;18.726;2022-11-15T17:26:07;87.50;;;47.00;;
51146;SDS011;37207;53.060;18.726;2022-11-15T17:28:36;94.70;;;49.30;;
51146;SDS011;37207;53.060;18.726;2022-11-15T17:31:07;100.10;;;51.60;;
51146;SDS011;37207;53.060;18.726;2022-11-15T17:33:36;91.80;;;49.40;;
51146;SDS011;37207;53.060;18.726;2022-11-15T17:36:04;102.10;;;52.70;;
51146;SDS011;37207;53.060;18.726;2022-11-15T17:38:32;88.90;;;50.00;;
51146;SDS011;37207;53.060;18.726;2022-11-15T17:41:03;99.20;;;52.70;;
51146;SDS011;37207;53.060;18.726;2022-11-15T17:43:32;103.50;;;52.60;;
51146;SDS011;37207;53.060;18.726;2022-11-15T17:46:01;92.80;;;52.70;;
51146;SDS011;37207;53.060;18.726;2022-11-15T17:48:30;97.40;;;52.10;;
51146;SDS011;37207;53.060;18.726;2022-11-15T17:50:58;94.90;;;51.10;;
51146;SDS011;37207;53.060;18.726;2022-11-15T17:53:33;97.10;;;52.10;;